Time;durP1;ratioP1;P1;durP2;ratioP2;P2;SDS_P1;SDS_P2;PMS_P1;PMS_P2;Temp;Humidity;BMP_temperature;BMP_pressure;BME280_temperature;BME280_humidity;BME280_pressure;Samples;Min_cycle;Max_cycle;Signal;HPM_P1;HPM_P2
2023/07/06 00:00:54;;;;;;;5.78;3.00;;;;;;;11.76;100.00;94096.69;5036139;28;20055;-59
2023/07/06 00:03:23;;;;;;;5.75;2.70;;;;;;;11.65;100.00;94099.63;5043658;28;20047;-59
2023/07/06 00:05:50;;;;;;;6.10;2.90;;;;;;;11.62;100.00;94097.69;5031859;28;20046;-59
2023/07/06 00:08:18;;;;;;;4.90;3.13;;;;;;;11.65;100.00;94096.06;5046261;28;20037;-60
2023/07/06 00:10:46;;;;;;;5.63;3.30;;;;;;;11.62;100.00;94100.44;5048655;28;20315;-60
2023/07/06 00:13:13;;;;;;;6.97;3.30;;;;;;;11.48;100.00;94092.44;5049006;28;20075;-59
2023/07/06 00:15:42;;;;;;;5.10;2.92;;;;;;;11.47;100.00;94099.91;5048606;28;20087;-59
2023/07/06 00:18:10;;;;;;;6.43;3.40;;;;;;;11.48;100.00;94095.94;5048777;28;20131;-59
2023/07/06 00:20:37;;;;;;;6.22;3.40;;;;;;;11.29;100.00;94097.44;5048088;28;20470;-59
2023/07/06 00:23:05;;;;;;;75.40;43.57;;;;;;;11.28;100.00;94100.59;5048791;28;20036;-58
2023/07/06 00:25:35;;;;;;;17.02;9.95;;;;;;;11.31;100.00;94105.25;5048554;28;20043;-59
2023/07/06 00:28:04;;;;;;;11.48;7.05;;;;;;;11.33;100.00;94100.13;5048661;28;20147;-61
2023/07/06 00:31:21;;;;;;;6.82;3.70;;;;;;;11.29;100.00;94107.63;5048213;28;20081;-61
2023/07/06 00:33:19;;;;;;;5.68;3.65;;;;;;;11.31;100.00;94106.03;5034954;28;20371;-61
2023/07/06 00:35:47;;;;;;;5.23;3.00;;;;;;;11.32;100.00;94101.31;5048226;28;20053;-59
2023/07/06 00:38:19;;;;;;;4.80;2.83;;;;;;;11.28;100.00;94103.31;5048664;28;20037;-58
2023/07/06 00:40:49;;;;;;;4.90;2.85;;;;;;;11.27;100.00;94102.56;5047889;28;20059;-58
2023/07/06 00:43:21;;;;;;;4.78;3.00;;;;;;;11.26;100.00;94100.22;5048566;28;20041;-58
2023/07/06 00:45:54;;;;;;;6.18;3.45;;;;;;;11.26;100.00;94111.97;5034978;28;20624;-59
2023/07/06 00:48:26;;;;;;;8.30;4.20;;;;;;;11.25;100.00;94112.38;5048245;28;20067;-58
2023/07/06 00:50:56;;;;;;;7.47;3.78;;;;;;;11.15;100.00;94111.38;5048168;28;20041;-61
2023/07/06 00:53:27;;;;;;;6.25;3.53;;;;;;;11.11;100.00;94107.91;5048577;28;20053;-59
2023/07/06 00:55:58;;;;;;;6.05;3.42;;;;;;;11.09;100.00;94108.31;5048000;28;20395;-58
2023/07/06 00:58:40;;;;;;;6.93;3.75;;;;;;;11.10;100.00;94104.34;5048268;28;20047;-58
2023/07/06 01:01:09;;;;;;;5.97;3.40;;;;;;;11.02;100.00;94100.16;5047510;28;20829;-59
2023/07/06 01:03:43;;;;;;;6.07;2.92;;;;;;;10.74;100.00;94098.56;5037900;28;20048;-59
2023/07/06 01:06:20;;;;;;;6.72;3.33;;;;;;;10.65;100.00;94104.56;5028614;28;20042;-59
2023/07/06 01:08:52;;;;;;;5.78;3.10;;;;;;;10.75;100.00;94098.16;5046302;28;20155;-58
2023/07/06 01:11:20;;;;;;;6.50;3.20;;;;;;;10.78;100.00;94094.63;5035054;28;20048;-59
2023/07/06 01:13:49;;;;;;;6.20;3.30;;;;;;;10.80;100.00;94091.44;5034881;28;20498;-59
2023/07/06 01:16:54;;;;;;;6.18;3.58;;;;;;;10.81;100.00;94092.22;5059909;28;20057;-59
2023/07/06 01:19:39;;;;;;;6.70;3.42;;;;;;;10.78;100.00;94089.13;5040638;28;20816;-60
2023/07/06 01:22:33;;;;;;;19.27;10.00;;;;;;;10.75;100.00;94092.69;5029433;28;20277;-58
2023/07/06 01:25:21;;;;;;;12.25;7.30;;;;;;;10.77;100.00;94086.78;5042849;28;21761;-58
2023/07/06 01:28:13;;;;;;;7.43;4.43;;;;;;;10.74;100.00;94088.38;5050955;28;20041;-58
2023/07/06 01:30:49;;;;;;;7.22;4.13;;;;;;;10.74;100.00;94091.09;5050425;28;20390;-59
2023/07/06 01:33:26;;;;;;;6.07;3.72;;;;;;;10.75;100.00;94091.91;5051463;28;20041;-59
2023/07/06 01:36:08;;;;;;;6.88;3.70;;;;;;;10.70;100.00;94090.38;5050480;28;20039;-59
2023/07/06 01:38:36;;;;;;;5.00;2.95;;;;;;;10.70;100.00;94093.13;5050508;28;20067;-59
2023/07/06 01:41:06;;;;;;;5.30;3.20;;;;;;;10.69;100.00;94094.31;5051371;28;20662;-61
2023/07/06 01:43:33;;;;;;;5.88;3.10;;;;;;;10.68;100.00;94087.28;5050279;28;20069;-61
2023/07/06 01:46:00;;;;;;;7.75;3.70;;;;;;;10.63;100.00;94084.22;5050951;28;20071;-59
2023/07/06 01:48:27;;;;;;;5.32;3.20;;;;;;;10.62;100.00;94094.41;5033069;28;20039;-60
2023/07/06 01:50:59;;;;;;;9.40;3.80;;;;;;;10.55;100.00;94095.28;5050426;28;20443;-59
2023/07/06 01:54:00;;;;;;;6.20;3.40;;;;;;;10.51;100.00;94100.03;5050903;28;20045;-61
2023/07/06 01:56:48;;;;;;;5.97;3.47;;;;;;;10.42;100.00;94093.47;5048918;28;20486;-59
2023/07/06 01:59:19;;;;;;;5.35;3.13;;;;;;;10.32;100.00;94098.69;5050066;28;20629;-59
2023/07/06 02:02:00;;;;;;;6.18;3.55;;;;;;;10.29;100.00;94096.75;5049882;28;20041;-59
2023/07/06 02:04:30;;;;;;;6.32;3.38;;;;;;;10.34;100.00;94107.31;5050930;28;20049;-58
2023/07/06 02:07:02;;;;;;;5.77;3.40;;;;;;;10.35;100.00;94105.31;5049442;28;20799;-58
2023/07/06 02:09:29;;;;;;;6.13;3.58;;;;;;;10.31;100.00;94099.88;5050841;28;20045;-59
2023/07/06 02:11:57;;;;;;;5.93;3.67;;;;;;;10.20;100.00;94093.69;5049512;28;20184;-59
2023/07/06 02:14:25;;;;;;;6.28;3.28;;;;;;;10.18;100.00;94096.88;5050738;28;20451;-60
2023/07/06 02:16:52;;;;;;;6.00;3.40;;;;;;;10.15;100.00;94094.16;5049581;28;20061;-58
2023/07/06 02:19:23;;;;;;;5.73;3.20;;;;;;;9.90;100.00;94092.44;5050594;28;20489;-58
2023/07/06 02:21:50;;;;;;;7.28;3.28;;;;;;;9.52;100.00;94091.63;5049560;28;20041;-61
2023/07/06 02:24:17;;;;;;;5.38;3.05;;;;;;;9.34;100.00;94098.03;5050509;28;20102;-60
2023/07/06 02:26:45;;;;;;;6.18;3.42;;;;;;;9.30;100.00;94094.53;5049394;28;20045;-58
2023/07/06 02:29:14;;;;;;;6.53;3.65;;;;;;;9.46;100.00;94093.25;5049301;28;20041;-58
2023/07/06 02:31:41;;;;;;;6.00;3.70;;;;;;;9.58;100.00;94092.75;5049298;28;20086;-58
2023/07/06 02:34:08;;;;;;;7.20;3.60;;;;;;;9.62;100.00;94096.25;5050018;28;20049;-58
2023/07/06 02:36:37;;;;;;;6.50;3.95;;;;;;;9.60;100.00;94093.91;5039736;28;20041;-59
2023/07/06 02:39:04;;;;;;;6.20;3.70;;;;;;;9.57;100.00;94089.22;5032717;28;20119;-59
2023/07/06 02:41:31;;;;;;;7.45;3.80;;;;;;;9.62;100.00;94084.47;5049931;28;20033;-59
2023/07/06 02:43:58;;;;;;;6.13;3.77;;;;;;;9.65;100.00;94078.97;5050782;28;20045;-60
2023/07/06 02:46:25;;;;;;;7.10;3.70;;;;;;;9.70;100.00;94073.06;5050278;28;20045;-58
2023/07/06 02:48:51;;;;;;;6.97;3.78;;;;;;;9.70;100.00;94075.00;5049999;28;20057;-58
2023/07/06 02:51:18;;;;;;;8.00;3.75;;;;;;;9.72;100.00;94072.66;5050665;28;20379;-59
2023/07/06 02:53:45;;;;;;;6.60;3.70;;;;;;;9.73;100.00;94071.47;5049885;28;20075;-59
2023/07/06 02:56:12;;;;;;;7.80;3.80;;;;;;;9.57;100.00;94067.28;5050632;28;20064;-61
2023/07/06 02:58:38;;;;;;;7.45;3.75;;;;;;;9.57;100.00;94067.28;5050090;28;20052;-60
2023/07/06 03:01:05;;;;;;;6.45;3.50;;;;;;;9.59;100.00;94064.94;5042668;28;20043;-59
2023/07/06 03:03:32;;;;;;;6.07;3.72;;;;;;;9.61;100.00;94067.28;5041689;28;20161;-59
2023/07/06 03:06:02;;;;;;;6.68;3.50;;;;;;;9.60;100.00;94063.00;5050156;28;20037;-60
2023/07/06 03:08:29;;;;;;;6.53;3.70;;;;;;;9.59;100.00;94070.41;5050747;28;20049;-59
2023/07/06 03:10:56;;;;;;;6.70;3.60;;;;;;;9.61;100.00;94070.00;5032124;28;20063;-60
2023/07/06 03:13:25;;;;;;;6.28;3.30;;;;;;;9.62;100.00;94066.09;5028804;28;20048;-60
2023/07/06 03:15:52;;;;;;;6.68;3.60;;;;;;;9.55;100.00;94068.88;5041915;28;20126;-61
2023/07/06 03:18:20;;;;;;;7.60;3.60;;;;;;;9.56;100.00;94073.19;5050052;28;20044;-59
2023/07/06 03:20:48;;;;;;;5.97;3.70;;;;;;;9.56;100.00;94063.00;5049793;28;20360;-59
2023/07/06 03:23:15;;;;;;;7.18;3.47;;;;;;;9.57;100.00;94061.03;5049883;28;20029;-61
2023/07/06 03:25:42;;;;;;;6.20;3.65;;;;;;;9.54;100.00;94064.59;5049507;28;20053;-59
2023/07/06 03:28:09;;;;;;;6.40;3.90;;;;;;;9.54;100.00;94068.13;5049747;28;20052;-59
2023/07/06 03:30:36;;;;;;;6.55;3.95;;;;;;;9.54;100.00;94062.63;5031789;28;20049;-59
2023/07/06 03:33:02;;;;;;;54.43;28.40;;;;;;;9.54;100.00;94064.59;5049677;28;20051;-61
2023/07/06 03:35:29;;;;;;;12.70;6.72;;;;;;;9.51;100.00;94059.94;5048080;28;20094;-61
2023/07/06 03:37:58;;;;;;;8.05;4.13;;;;;;;9.51;100.00;94063.44;5030592;28;20052;-59
2023/07/06 03:40:29;;;;;;;8.07;4.22;;;;;;;9.52;100.00;94056.00;5042340;28;20399;-61
2023/07/06 03:42:56;;;;;;;8.02;4.20;;;;;;;9.48;100.00;94061.53;5031577;28;20412;-60
2023/07/06 03:45:24;;;;;;;7.63;4.10;;;;;;;9.47;100.00;94064.66;5049778;28;20043;-60
2023/07/06 03:47:51;;;;;;;7.07;3.92;;;;;;;9.54;100.00;94064.59;5048817;28;20075;-59
2023/07/06 03:50:20;;;;;;;7.32;4.45;;;;;;;9.51;100.00;94068.16;5049697;28;20040;-61
2023/07/06 03:52:48;;;;;;;9.77;4.25;;;;;;;9.58;100.00;94071.59;5048966;28;20053;-59
2023/07/06 03:55:19;;;;;;;7.90;4.22;;;;;;;9.69;100.00;94068.75;5049712;28;20043;-59
2023/07/06 03:57:47;;;;;;;8.20;4.07;;;;;;;9.70;100.00;94069.53;5048903;28;20057;-61
2023/07/06 04:00:30;;;;;;;7.55;4.28;;;;;;;9.70;100.00;94072.25;5049468;28;20405;-62
2023/07/06 04:03:02;;;;;;;7.57;3.83;;;;;;;9.69;100.00;94073.47;5047935;28;20053;-59
2023/07/06 04:05:32;;;;;;;8.10;4.22;;;;;;;9.84;100.00;94074.09;5049138;28;20482;-59
2023/07/06 04:08:05;;;;;;;8.80;4.40;;;;;;;9.82;100.00;94073.72;5048268;28;20053;-59
2023/07/06 04:10:34;;;;;;;8.57;4.07;;;;;;;9.90;100.00;94072.47;5048455;28;20064;-59
2023/07/06 04:13:01;;;;;;;9.18;4.32;;;;;;;10.00;100.00;94077.09;5049011;28;20638;-61
2023/07/06 04:15:28;;;;;;;9.00;4.30;;;;;;;10.04;100.00;94082.50;5049078;28;20048;-59
2023/07/06 04:17:55;;;;;;;7.70;4.30;;;;;;;10.19;100.00;94078.44;5048082;28;20036;-59
2023/07/06 04:20:25;;;;;;;9.05;4.22;;;;;;;10.28;100.00;94076.00;5048449;28;20158;-61
2023/07/06 04:22:54;;;;;;;9.40;4.40;;;;;;;10.34;100.00;94081.81;5047939;28;20497;-59
2023/07/06 04:25:26;;;;;;;10.23;4.40;;;;;;;10.42;100.00;94088.00;5048635;28;20037;-59
2023/07/06 04:27:53;;;;;;;8.20;4.50;;;;;;;10.55;100.00;94081.56;5048368;28;20067;-60
2023/07/06 04:30:20;;;;;;;10.00;5.22;;;;;;;10.16;100.00;94080.03;5048360;28;20048;-61
2023/07/06 04:32:48;;;;;;;11.48;5.22;;;;;;;10.20;100.00;94088.22;5047684;28;20056;-59
2023/07/06 04:35:18;;;;;;;8.87;5.00;;;;;;;10.64;100.00;94080.28;5047169;28;20037;-61
2023/07/06 04:37:46;;;;;;;8.13;4.80;;;;;;;11.17;100.00;94084.28;5029632;28;20048;-59
2023/07/06 04:40:17;;;;;;;10.50;4.90;;;;;;;11.33;100.00;94078.91;5039170;28;20512;-59
2023/07/06 04:42:48;;;;;;;8.73;5.00;;;;;;;11.39;100.00;94080.00;5047328;28;20049;-60
2023/07/06 04:45:17;;;;;;;13.38;4.88;;;;;;;11.24;100.00;94073.16;5048207;28;20312;-62
2023/07/06 04:47:44;;;;;;;10.80;5.37;;;;;;;11.26;100.00;94089.22;5047175;28;20049;-60
2023/07/06 04:50:22;;;;;;;11.07;5.07;;;;;;;11.27;100.00;94079.78;5048248;28;20055;-61
2023/07/06 04:52:56;;;;;;;10.32;4.55;;;;;;;11.33;100.00;94083.63;5025849;28;20045;-60
2023/07/06 04:55:29;;;;;;;10.20;4.47;;;;;;;11.23;100.00;94088.09;5023086;28;20097;-59
2023/07/06 04:57:58;;;;;;;9.73;4.85;;;;;;;11.11;100.00;94083.94;5047711;28;20473;-59
2023/07/06 05:00:29;;;;;;;10.23;5.00;;;;;;;11.35;100.00;94084.00;5048229;28;20316;-60
2023/07/06 05:02:59;;;;;;;9.63;5.00;;;;;;;11.49;100.00;94086.53;5047349;28;20088;-59
2023/07/06 05:05:31;;;;;;;9.40;5.05;;;;;;;11.61;100.00;94085.16;5047815;28;20037;-60
2023/07/06 05:07:58;;;;;;;9.68;5.05;;;;;;;11.46;100.00;94084.59;5034989;28;20856;-62
2023/07/06 05:10:26;;;;;;;9.18;5.10;;;;;;;11.46;100.00;94083.81;5047962;28;20039;-60
2023/07/06 05:12:55;;;;;;;9.43;5.10;;;;;;;11.66;100.00;94083.88;5047634;28;20045;-60
2023/07/06 05:15:23;;;;;;;10.75;5.00;;;;;;;11.94;100.00;94083.41;5048349;28;20041;-60
2023/07/06 05:17:50;;;;;;;11.48;5.18;;;;;;;11.70;100.00;94087.34;5047598;28;20037;-61
2023/07/06 05:20:18;;;;;;;8.70;4.95;;;;;;;11.53;100.00;94090.00;5048040;28;20045;-59
2023/07/06 05:22:47;;;;;;;10.57;5.28;;;;;;;11.93;100.00;94081.88;5029527;28;20048;-59
2023/07/06 05:25:18;;;;;;;10.27;5.33;;;;;;;13.65;100.00;94080.25;5048260;28;20455;-60
2023/07/06 05:27:46;;;;;;;8.45;4.53;;;;;;;15.98;100.00;94079.16;5047324;28;20037;-60
2023/07/06 05:30:13;;;;;;;8.55;5.10;;;;;;;14.47;100.00;94088.41;5047348;28;20044;-59
2023/07/06 05:32:41;;;;;;;9.15;5.15;;;;;;;13.49;100.00;94088.53;5029603;28;20076;-60
2023/07/06 05:35:09;;;;;;;8.02;5.30;;;;;;;12.77;100.00;94096.38;5047904;28;20068;-61
2023/07/06 05:37:36;;;;;;;10.37;5.50;;;;;;;12.77;100.00;94079.84;5047375;28;20424;-60
2023/07/06 05:40:06;;;;;;;7.85;4.90;;;;;;;13.41;100.00;94084.41;5053487;28;20041;-60
2023/07/06 05:42:33;;;;;;;9.18;5.15;;;;;;;14.24;100.00;94074.84;5060136;28;20057;-60
2023/07/06 05:45:00;;;;;;;8.98;5.20;;;;;;;16.70;100.00;94071.13;5026591;28;20033;-60
2023/07/06 05:47:27;;;;;;;8.45;4.95;;;;;;;20.03;86.14;94068.59;5046602;28;20468;-60
2023/07/06 05:49:54;;;;;;;7.63;4.90;;;;;;;19.53;79.78;94077.31;5047104;28;20124;-61
2023/07/06 05:52:21;;;;;;;9.10;5.10;;;;;;;18.85;83.01;94070.06;5047691;28;20040;-62
2023/07/06 05:54:47;;;;;;;7.78;4.90;;;;;;;18.74;84.83;94076.06;5050162;28;20053;-61
2023/07/06 05:57:17;;;;;;;8.48;5.40;;;;;;;20.08;78.69;94070.69;5045471;28;20055;-61
2023/07/06 05:59:45;;;;;;;8.82;4.93;;;;;;;21.01;70.77;94073.59;5047008;28;20489;-63
2023/07/06 06:02:16;;;;;;;10.17;5.43;;;;;;;21.87;65.03;94069.69;5047389;28;20041;-61
2023/07/06 06:04:43;;;;;;;9.45;4.57;;;;;;;23.84;57.71;94062.66;5032706;28;20080;-61
2023/07/06 06:07:09;;;;;;;7.85;4.32;;;;;;;24.67;52.73;94060.06;5041192;28;20122;-63
2023/07/06 06:09:36;;;;;;;7.05;4.68;;;;;;;25.81;49.07;94059.75;5061735;28;20486;-61
2023/07/06 06:12:04;;;;;;;7.32;4.57;;;;;;;26.81;45.22;94062.84;5029985;28;20372;-62
2023/07/06 06:14:32;;;;;;;6.67;4.30;;;;;;;27.62;41.88;94061.84;5046667;28;20489;-62
2023/07/06 06:17:00;;;;;;;6.95;4.50;;;;;;;25.88;45.34;94067.66;5049639;28;20117;-64
2023/07/06 06:19:27;;;;;;;8.23;4.10;;;;;;;26.25;44.18;94063.78;5050648;28;20335;-64
2023/07/06 06:21:54;;;;;;;6.88;4.30;;;;;;;27.53;41.07;94065.00;5052615;28;20044;-64
2023/07/06 06:24:22;;;;;;;5.93;4.13;;;;;;;26.27;39.53;94069.66;5058385;28;20032;-62
2023/07/06 06:26:49;;;;;;;6.90;3.80;;;;;;;24.78;43.07;94067.78;5032957;28;20056;-62
2023/07/06 06:29:17;;;;;;;6.93;3.88;;;;;;;25.40;41.99;94076.34;5037743;28;20416;-64
2023/07/06 06:31:44;;;;;;;4.82;3.50;;;;;;;25.84;40.15;94072.78;5057666;28;20410;-61
2023/07/06 06:34:11;;;;;;;5.20;3.30;;;;;;;26.62;39.82;94073.16;5050483;28;20559;-61
2023/07/06 06:36:38;;;;;;;5.82;3.72;;;;;;;26.41;38.88;94087.53;5050193;28;20293;-62
2023/07/06 06:39:06;;;;;;;5.67;3.00;;;;;;;29.28;34.43;94087.34;5047021;28;20467;-61
2023/07/06 06:41:33;;;;;;;6.20;3.10;;;;;;;31.32;30.74;94075.28;5023425;28;20094;-62
2023/07/06 06:44:00;;;;;;;4.70;3.47;;;;;;;31.71;29.96;94080.06;5054483;28;20051;-61
2023/07/06 06:46:27;;;;;;;4.50;3.10;;;;;;;31.84;29.39;94074.34;5044400;28;20043;-62
2023/07/06 06:48:54;;;;;;;5.28;3.22;;;;;;;30.10;30.97;94077.88;5030214;28;20049;-61
2023/07/06 06:51:21;;;;;;;5.93;3.50;;;;;;;28.99;34.27;94083.31;5030848;28;20094;-62
2023/07/06 06:53:48;;;;;;;4.60;3.00;;;;;;;27.26;37.37;94076.69;5048039;28;20052;-62
2023/07/06 06:56:15;;;;;;;4.32;3.20;;;;;;;26.89;38.37;94075.09;5055138;28;20686;-63
2023/07/06 06:58:41;;;;;;;5.07;3.10;;;;;;;27.70;37.23;94068.47;5061116;28;20047;-62
2023/07/06 07:01:10;;;;;;;5.07;3.35;;;;;;;28.46;34.62;94075.19;5050002;28;20131;-64
2023/07/06 07:03:37;;;;;;;4.70;2.90;;;;;;;31.88;28.79;94062.63;5027626;28;20034;-66
2023/07/06 07:06:13;;;;;;;6.05;2.90;;;;;;;32.85;27.43;94064.53;5050795;28;20041;-61
2023/07/06 07:08:45;;;;;;;5.97;3.30;;;;;;;31.93;28.40;94064.56;5049782;28;20057;-62
2023/07/06 07:11:12;;;;;;;6.85;3.30;;;;;;;33.10;26.91;94059.19;5050564;28;20049;-64
2023/07/06 07:13:51;;;;;;;5.28;3.65;;;;;;;30.92;29.25;94061.19;5049688;28;20052;-62
2023/07/06 07:16:19;;;;;;;4.67;3.40;;;;;;;26.87;36.71;94057.19;5049875;28;20041;-63
2023/07/06 07:18:48;;;;;;;22.27;4.43;;;;;;;28.54;35.59;94060.53;5050300;28;20053;-61
2023/07/06 07:21:16;;;;;;;29.90;4.15;;;;;;;29.28;34.92;94059.06;5049724;28;20417;-61
2023/07/06 07:23:45;;;;;;;5.95;3.63;;;;;;;28.85;33.92;94062.69;5049426;28;20068;-61
2023/07/06 07:26:15;;;;;;;8.10;5.00;;;;;;;28.05;36.38;94056.38;5050134;28;20041;-63
2023/07/06 07:28:42;;;;;;;9.87;4.90;;;;;;;24.13;44.07;94064.38;5049896;28;20514;-62
2023/07/06 07:31:12;;;;;;;12.27;8.30;;;;;;;27.92;38.49;94055.50;5050124;28;20045;-61
2023/07/06 07:33:43;;;;;;;9.63;5.97;;;;;;;29.79;34.82;94052.66;5045905;28;20047;-63
2023/07/06 07:36:12;;;;;;;5.95;4.15;;;;;;;31.40;31.92;94053.44;5030756;28;20052;-62
2023/07/06 07:38:39;;;;;;;7.53;4.07;;;;;;;28.88;34.56;94049.59;5043505;28;20067;-62
2023/07/06 07:41:07;;;;;;;5.50;3.80;;;;;;;31.84;30.18;94043.13;5050008;28;20041;-62
2023/07/06 07:43:36;;;;;;;6.30;4.00;;;;;;;30.76;30.84;94046.03;5049683;28;20048;-62
2023/07/06 07:46:06;;;;;;;6.95;4.30;;;;;;;31.10;30.66;94051.00;5049707;28;20041;-62
2023/07/06 07:48:38;;;;;;;7.47;4.25;;;;;;;30.00;29.70;94054.88;5031248;28;20070;-62
2023/07/06 07:51:10;;;;;;;6.50;4.45;;;;;;;32.67;26.98;94045.66;5049934;28;20043;-61
2023/07/06 07:53:39;;;;;;;5.40;4.13;;;;;;;34.75;24.11;94052.56;5049408;28;20105;-63
2023/07/06 07:56:07;;;;;;;5.55;4.15;;;;;;;36.17;22.69;94034.41;5049486;28;20041;-60
2023/07/06 07:58:36;;;;;;;5.68;4.32;;;;;;;33.11;24.91;94037.19;5049015;28;20049;-59
2023/07/06 08:01:05;;;;;;;7.05;4.40;;;;;;;29.66;29.24;94041.25;5049273;28;20056;-61
2023/07/06 08:03:36;;;;;;;5.55;4.30;;;;;;;29.66;29.63;94042.03;5049317;28;20041;-61
2023/07/06 08:06:05;;;;;;;7.97;4.80;;;;;;;29.92;29.80;94045.50;5046917;28;20053;-59
2023/07/06 08:08:35;;;;;;;5.97;4.22;;;;;;;31.82;28.15;94025.88;5038806;28;20052;-59
2023/07/06 08:11:14;;;;;;;6.78;4.25;;;;;;;33.81;25.93;94039.66;5049640;28;20041;-60
2023/07/06 08:13:44;;;;;;;5.47;4.18;;;;;;;33.38;26.23;94032.75;5048941;28;20056;-61
2023/07/06 08:16:12;;;;;;;6.63;4.78;;;;;;;29.16;30.21;94046.41;5049128;28;20041;-60
2023/07/06 08:18:43;;;;;;;5.27;4.17;;;;;;;32.17;27.31;94042.84;5023370;28;20503;-63
2023/07/06 08:21:10;;;;;;;6.57;4.22;;;;;;;32.44;26.97;94046.25;5044052;28;20408;-62
2023/07/06 08:23:58;;;;;;;5.45;4.00;;;;;;;35.22;23.90;94041.81;5048346;28;20585;-59
2023/07/06 08:26:25;;;;;;;5.93;4.80;;;;;;;27.77;32.03;94041.72;5048198;28;20052;-60
2023/07/06 08:28:51;;;;;;;8.45;4.68;;;;;;;29.87;30.00;94045.06;5048698;28;20514;-59
2023/07/06 08:31:22;;;;;;;7.27;4.70;;;;;;;29.01;30.31;94057.38;5049212;28;20040;-61
2023/07/06 08:33:48;;;;;;;7.20;4.90;;;;;;;27.16;33.05;94052.16;5042934;28;20398;-59
2023/07/06 08:36:18;;;;;;;6.53;4.63;;;;;;;28.82;31.45;94054.53;5028963;28;20398;-59
2023/07/06 08:38:46;;;;;;;7.55;4.53;;;;;;;31.57;27.70;94053.06;5040021;28;20300;-59
2023/07/06 08:41:33;;;;;;;6.28;4.10;;;;;;;33.61;25.68;94054.78;5048798;28;20041;-60
2023/07/06 08:44:07;;;;;;;6.10;4.03;;;;;;;30.78;28.38;94054.75;5040798;28;20406;-60
2023/07/06 08:46:38;;;;;;;6.70;4.30;;;;;;;31.46;28.61;94054.09;5047584;28;20033;-59
2023/07/06 08:49:17;;;;;;;8.43;4.50;;;;;;;32.58;26.20;94044.13;5048318;28;20486;-63
2023/07/06 08:51:45;;;;;;;6.70;4.10;;;;;;;29.85;28.51;94050.50;5047975;28;20453;-61
2023/07/06 08:54:21;;;;;;;6.45;4.40;;;;;;;29.53;29.62;94050.47;5031148;28;20071;-61
2023/07/06 08:56:49;;;;;;;6.20;4.37;;;;;;;29.20;29.45;94057.41;5034776;28;20049;-62
2023/07/06 08:59:36;;;;;;;6.10;4.40;;;;;;;29.57;29.55;94053.00;5048697;28;20049;-62
2023/07/06 09:02:28;;;;;;;6.68;4.53;;;;;;;25.89;33.22;94055.13;5047787;28;20037;-61
2023/07/06 09:04:59;;;;;;;6.25;4.40;;;;;;;25.20;34.49;94060.47;5047818;28;20052;-61
2023/07/06 09:07:39;;;;;;;7.82;4.70;;;;;;;25.11;35.33;94062.25;5027311;28;20045;-63
2023/07/06 09:10:32;;;;;;;7.90;4.53;;;;;;;23.75;38.07;94062.09;5047142;28;20167;-61
2023/07/06 09:13:22;;;;;;;6.10;4.53;;;;;;;23.62;38.66;94068.84;5045090;28;20371;-61
2023/07/06 09:16:01;;;;;;;5.50;4.10;;;;;;;24.83;36.83;94070.59;5037640;28;20409;-60
2023/07/06 09:18:30;;;;;;;6.95;4.60;;;;;;;25.75;34.98;94066.66;5048227;28;20381;-61
2023/07/06 09:20:59;;;;;;;6.82;4.00;;;;;;;26.93;33.74;94062.81;5048189;28;20052;-63
2023/07/06 09:23:25;;;;;;;5.53;4.17;;;;;;;29.36;30.33;94053.56;5048352;28;20049;-64
2023/07/06 09:25:54;;;;;;;5.95;4.32;;;;;;;30.23;28.28;94058.09;5048182;28;20072;-61
2023/07/06 09:28:26;;;;;;;6.05;4.13;;;;;;;29.95;28.53;94053.69;5048433;28;20033;-61
2023/07/06 09:31:18;;;;;;;5.68;3.90;;;;;;;31.82;26.22;94051.41;5048170;28;20037;-65
2023/07/06 09:33:48;;;;;;;7.72;4.50;;;;;;;33.66;24.45;94050.28;5024998;28;20050;-62
2023/07/06 09:36:19;;;;;;;5.70;4.07;;;;;;;31.40;26.74;94054.19;5029313;28;20059;-62
2023/07/06 09:38:45;;;;;;;5.32;3.90;;;;;;;29.09;29.67;94056.22;5045571;28;20048;-63
2023/07/06 09:41:23;;;;;;;5.50;4.30;;;;;;;26.06;33.02;94060.78;5052099;28;20063;-61
2023/07/06 09:43:57;;;;;;;8.52;4.88;;;;;;;24.59;35.92;94071.03;5051741;28;20052;-61
2023/07/06 09:46:34;;;;;;;7.30;4.38;;;;;;;25.45;35.10;94067.16;5052029;28;20044;-63
2023/07/06 09:49:01;;;;;;;6.17;4.47;;;;;;;24.71;35.24;94064.19;5037442;28;20108;-63
2023/07/06 09:51:38;;;;;;;6.78;4.38;;;;;;;24.95;35.33;94070.63;5051543;28;20045;-65
2023/07/06 09:54:18;;;;;;;6.68;4.60;;;;;;;24.32;36.82;94080.81;5050859;28;20906;-63
2023/07/06 09:56:45;;;;;;;8.23;4.53;;;;;;;23.93;36.94;94078.53;5051377;28;20041;-62
2023/07/06 09:59:11;;;;;;;6.82;4.40;;;;;;;23.68;37.60;94075.28;5051681;28;20060;-64
2023/07/06 10:02:01;;;;;;;7.20;4.60;;;;;;;24.09;37.92;94074.31;5039903;28;20425;-62
2023/07/06 10:04:49;;;;;;;7.07;4.60;;;;;;;25.62;34.93;94067.94;5039880;28;20037;-62
2023/07/06 10:07:23;;;;;;;6.63;4.50;;;;;;;26.58;34.79;94072.66;5048904;28;20067;-62
2023/07/06 10:09:55;;;;;;;7.75;4.95;;;;;;;29.31;29.09;94057.22;5051049;28;20061;-63
2023/07/06 10:13:04;;;;;;;8.00;4.20;;;;;;;31.37;27.26;94060.97;5051514;28;20310;-63
2023/07/06 10:15:40;;;;;;;6.80;4.50;;;;;;;32.12;26.74;94057.97;4969491;28;20441;-63
2023/07/06 10:18:13;;;;;;;6.95;4.30;;;;;;;32.94;24.83;94064.00;5032003;28;20049;-64
2023/07/06 10:20:52;;;;;;;5.78;4.40;;;;;;;31.62;25.82;94060.69;5033233;28;20049;-62
2023/07/06 10:23:34;;;;;;;7.38;4.40;;;;;;;27.92;30.06;94070.34;5033379;28;20051;-62
2023/07/06 10:26:17;;;;;;;7.88;4.40;;;;;;;24.62;34.92;94077.66;5046738;28;20602;-62
2023/07/06 10:28:58;;;;;;;7.00;4.40;;;;;;;26.33;33.57;94069.66;5022928;28;20480;-62
2023/07/06 10:31:31;;;;;;;6.82;4.50;;;;;;;26.09;33.54;94068.16;5049176;28;20039;-61
2023/07/06 10:34:21;;;;;;;6.30;4.30;;;;;;;27.28;32.23;94068.50;5036919;28;20867;-61
2023/07/06 10:36:49;;;;;;;7.07;4.30;;;;;;;27.09;32.13;94056.31;5036965;28;20071;-61
2023/07/06 10:39:25;;;;;;;6.43;4.22;;;;;;;27.73;31.20;94056.13;5050723;28;20048;-61
2023/07/06 10:42:00;;;;;;;5.77;4.00;;;;;;;27.75;30.85;94056.38;5050328;28;20041;-61
2023/07/06 10:44:46;;;;;;;6.35;4.25;;;;;;;27.42;30.91;94055.34;5050964;28;20049;-61
2023/07/06 10:47:32;;;;;;;6.78;4.30;;;;;;;27.40;31.19;94052.28;5031681;28;20207;-61
2023/07/06 10:50:19;;;;;;;7.03;4.70;;;;;;;27.09;31.73;94053.50;5041510;28;20871;-62
2023/07/06 10:52:58;;;;;;;6.25;4.20;;;;;;;27.28;31.59;94051.59;5049977;28;20057;-61
2023/07/06 10:55:34;;;;;;;6.93;4.70;;;;;;;26.44;32.85;94057.59;5050270;28;20056;-61
2023/07/06 10:58:11;;;;;;;5.80;4.30;;;;;;;27.21;32.71;94052.13;5049579;28;20037;-61
2023/07/06 11:00:44;;;;;;;6.20;4.18;;;;;;;25.99;33.87;94054.91;5050154;28;20048;-61
2023/07/06 11:03:16;;;;;;;7.68;4.72;;;;;;;24.66;36.48;94045.28;5050644;28;20045;-61
2023/07/06 11:06:06;;;;;;;6.38;4.55;;;;;;;25.19;35.65;94059.69;5049863;28;20040;-61
2023/07/06 11:09:02;;;;;;;6.67;4.50;;;;;;;25.48;35.08;94054.91;5049939;28;20053;-61
2023/07/06 11:11:32;;;;;;;7.30;4.40;;;;;;;25.56;34.02;94053.13;5039394;28;20041;-62
2023/07/06 11:14:24;;;;;;;5.90;4.50;;;;;;;24.16;36.67;94056.25;5049332;28;20640;-61
2023/07/06 11:17:15;;;;;;;6.72;4.75;;;;;;;24.45;36.27;94046.72;5049731;28;20041;-61
2023/07/06 11:20:08;;;;;;;9.25;4.70;;;;;;;25.36;35.88;94059.75;5030723;28;20033;-61
2023/07/06 11:22:37;;;;;;;7.03;4.80;;;;;;;24.81;37.30;94059.13;5042607;28;20489;-61
2023/07/06 11:25:04;;;;;;;10.57;4.70;;;;;;;25.73;35.17;94057.97;5049766;28;20045;-61
2023/07/06 11:27:36;;;;;;;7.85;4.57;;;;;;;24.79;35.96;94049.63;5050224;28;20486;-62
2023/07/06 11:30:08;;;;;;;6.85;4.50;;;;;;;25.36;35.39;94053.38;5048780;28;21655;-61
2023/07/06 11:33:00;;;;;;;6.88;4.30;;;;;;;25.09;35.43;94056.38;5049609;28;20041;-61
2023/07/06 11:35:54;;;;;;;5.67;4.27;;;;;;;26.07;35.33;94051.03;5037621;28;20076;-63
2023/07/06 11:38:24;;;;;;;6.80;4.60;;;;;;;26.58;32.87;94052.97;5048763;28;21546;-61
2023/07/06 11:41:09;;;;;;;6.95;4.30;;;;;;;26.68;32.97;94046.53;5049399;28;20048;-62
2023/07/06 11:43:57;;;;;;;7.38;4.53;;;;;;;26.64;32.45;94048.84;5049458;28;20202;-62
2023/07/06 11:46:45;;;;;;;6.55;4.30;;;;;;;26.22;33.38;94047.16;5036169;28;20401;-62
2023/07/06 11:49:42;;;;;;;6.53;4.60;;;;;;;26.39;32.93;94047.13;5031609;28;20060;-61
2023/07/06 11:52:22;;;;;;;6.80;4.70;;;;;;;26.30;33.07;94043.31;5049099;28;20063;-61